createdAt,value
2019-03-28T00:01:40.924Z,7.58
2019-03-28T00:04:10.713Z,7.54
2019-03-28T00:06:40.547Z,7.55
2019-03-28T00:09:10.552Z,7.53
2019-03-28T00:11:40.466Z,7.54
2019-03-28T00:14:10.386Z,7.54
2019-03-28T00:16:40.285Z,7.50
2019-03-28T00:19:10.147Z,7.55
2019-03-28T00:21:39.926Z,7.55
2019-03-28T00:24:14.599Z,7.51
2019-03-28T00:26:44.400Z,7.49
2019-03-28T00:29:14.389Z,7.51
2019-03-28T00:31:47.654Z,7.52
2019-03-28T00:34:15.807Z,7.54
2019-03-28T00:36:45.740Z,7.56
2019-03-28T00:39:15.609Z,7.57
2019-03-28T00:41:45.614Z,7.52
2019-03-28T00:44:16.085Z,7.48
2019-03-28T00:46:46.224Z,7.50
2019-03-28T00:49:16.219Z,7.43
2019-03-28T00:51:45.993Z,7.30
2019-03-28T00:54:15.981Z,7.38
2019-03-28T00:56:47.571Z,7.35
2019-03-28T00:59:17.552Z,7.34
2019-03-28T01:01:47.601Z,7.36
2019-03-28T01:04:17.484Z,7.40
2019-03-28T01:06:47.330Z,7.37
2019-03-28T01:09:17.301Z,7.37
2019-03-28T01:11:47.215Z,7.42
2019-03-28T01:14:16.975Z,7.44
2019-03-28T01:16:46.870Z,7.43
2019-03-28T01:19:16.668Z,7.46
2019-03-28T01:21:46.471Z,7.44
2019-03-28T01:24:16.347Z,7.41
2019-03-28T01:26:56.769Z,7.27
2019-03-28T01:29:17.805Z,6.99
2019-03-28T01:31:47.615Z,6.84
2019-03-28T01:34:17.371Z,6.71
2019-03-28T01:36:47.160Z,6.82
2019-03-28T01:39:17.015Z,6.84
2019-03-28T01:41:46.843Z,6.80
2019-03-28T01:44:17.286Z,6.74
2019-03-28T01:46:47.198Z,6.66
2019-03-28T01:49:17.153Z,6.71
2019-03-28T01:51:46.980Z,6.76
2019-03-28T01:54:16.748Z,6.80
2019-03-28T01:56:46.558Z,6.76
2019-03-28T01:59:16.325Z,6.86
2019-03-28T02:01:46.095Z,6.88
2019-03-28T02:04:15.907Z,6.82
2019-03-28T02:06:45.723Z,6.81
2019-03-28T02:09:15.483Z,6.77
2019-03-28T02:11:45.383Z,6.75
2019-03-28T02:14:15.159Z,6.74
2019-03-28T02:16:44.942Z,6.81
2019-03-28T02:19:14.899Z,6.83
2019-03-28T02:21:44.797Z,6.91
2019-03-28T02:24:14.551Z,6.94
2019-03-28T02:26:44.358Z,6.87
2019-03-28T02:29:14.233Z,6.84
2019-03-28T02:31:44.029Z,6.79
2019-03-28T02:34:13.923Z,6.78
2019-03-28T02:36:43.924Z,6.64
2019-03-28T02:39:13.696Z,6.63
2019-03-28T02:41:43.455Z,6.56
2019-03-28T02:44:13.440Z,6.66
2019-03-28T02:46:43.306Z,6.73
2019-03-28T02:49:13.292Z,6.80
2019-03-28T02:51:43.181Z,6.89
2019-03-28T02:54:13.068Z,6.94
2019-03-28T02:56:42.961Z,6.99
2019-03-28T02:59:12.948Z,6.99
2019-03-28T03:01:43.025Z,6.98
2019-03-28T03:04:12.908Z,6.89
2019-03-28T03:06:42.684Z,6.77
2019-03-28T03:09:12.575Z,6.75
2019-03-28T03:11:42.983Z,6.78
2019-03-28T03:14:13.202Z,6.88
2019-03-28T03:16:43.056Z,6.93
2019-03-28T03:19:13.046Z,6.98
2019-03-28T03:21:42.933Z,6.96
2019-03-28T03:24:13.079Z,7.01
2019-03-28T03:26:43.151Z,6.95
2019-03-28T03:29:13.163Z,6.82
2019-03-28T03:31:42.933Z,6.81
2019-03-28T03:34:12.766Z,6.84
2019-03-28T03:36:42.492Z,6.71
2019-03-28T03:39:12.387Z,6.66
2019-03-28T03:41:42.641Z,6.67
2019-03-28T03:44:12.565Z,6.68
2019-03-28T03:46:42.439Z,6.71
2019-03-28T03:49:12.231Z,6.74
2019-03-28T03:51:46.226Z,6.82
2019-03-28T03:54:13.609Z,6.84
2019-03-28T03:56:43.383Z,6.85
2019-03-28T03:59:13.165Z,6.85
2019-03-28T04:01:42.934Z,6.88
2019-03-28T04:04:12.738Z,6.77
2019-03-28T04:06:42.494Z,6.69
2019-03-28T04:09:12.281Z,6.54
2019-03-28T04:11:42.046Z,6.59
2019-03-28T04:14:11.943Z,6.70
2019-03-28T04:16:41.725Z,6.71
2019-03-28T04:19:11.614Z,6.75
2019-03-28T04:21:41.389Z,6.79
2019-03-28T04:24:11.177Z,6.83
2019-03-28T04:26:40.946Z,6.84
2019-03-28T04:29:10.740Z,6.85
2019-03-28T04:31:40.506Z,6.89
2019-03-28T04:34:10.407Z,6.84
2019-03-28T04:36:40.957Z,6.78
2019-03-28T04:39:11.028Z,6.74
2019-03-28T04:41:40.790Z,6.61
2019-03-28T04:44:10.578Z,6.52
2019-03-28T04:46:40.338Z,6.45
2019-03-28T04:49:10.138Z,6.53
2019-03-28T04:51:39.907Z,6.58
2019-03-28T04:54:10.022Z,6.63
2019-03-28T04:56:39.767Z,6.65
2019-03-28T04:59:09.588Z,6.63
2019-03-28T05:01:39.352Z,6.68
2019-03-28T05:04:09.211Z,6.74
2019-03-28T05:06:39.103Z,6.77
2019-03-28T05:09:08.865Z,6.82
2019-03-28T05:11:38.652Z,6.81
2019-03-28T05:14:08.442Z,6.88
2019-03-28T05:16:38.179Z,6.90
2019-03-28T05:19:07.947Z,6.94
2019-03-28T05:21:37.740Z,7.00
2019-03-28T05:24:07.599Z,7.04
2019-03-28T05:26:37.374Z,7.05
2019-03-28T05:29:07.282Z,7.10
2019-03-28T05:31:37.218Z,7.11
2019-03-28T05:34:06.983Z,7.09
2019-03-28T05:36:36.765Z,7.10
2019-03-28T05:39:07.839Z,7.19
2019-03-28T05:41:37.628Z,7.21
2019-03-28T05:44:07.392Z,7.28
2019-03-28T05:46:37.189Z,7.32
2019-03-28T05:49:06.962Z,7.42
2019-03-28T05:51:36.751Z,7.48
2019-03-28T05:54:06.546Z,7.51
2019-03-28T05:56:36.382Z,7.55
2019-03-28T05:59:11.241Z,7.59
2019-03-28T06:01:37.677Z,7.63
2019-03-28T06:04:08.361Z,7.76
2019-03-28T06:06:38.271Z,7.82
2019-03-28T06:09:08.621Z,8.01
2019-03-28T06:11:38.418Z,8.04
2019-03-28T06:14:08.202Z,8.08
2019-03-28T06:16:37.979Z,8.06
2019-03-28T06:19:07.851Z,8.28
2019-03-28T06:21:39.650Z,8.46
2019-03-28T06:24:09.122Z,8.64
2019-03-28T06:26:38.938Z,8.77
2019-03-28T06:29:08.870Z,8.87
2019-03-28T06:31:38.663Z,9.04
2019-03-28T06:34:08.422Z,9.13
2019-03-28T06:36:38.207Z,9.30
2019-03-28T06:39:08.183Z,9.44
2019-03-28T06:41:38.092Z,9.62
2019-03-28T06:44:07.840Z,9.84
2019-03-28T06:46:37.639Z,10.12
2019-03-28T06:49:07.601Z,9.85
2019-03-28T06:51:37.386Z,9.94
2019-03-28T06:54:07.157Z,10.10
2019-03-28T06:56:37.000Z,10.62
2019-03-28T06:59:06.791Z,11.54
2019-03-28T07:01:36.578Z,14.11
2019-03-28T07:04:06.346Z,19.83
2019-03-28T07:06:36.131Z,19.83
2019-03-28T07:09:08.487Z,20.35
2019-03-28T07:11:38.306Z,20.70
2019-03-28T07:14:08.098Z,20.05
2019-03-28T07:16:37.902Z,19.23
2019-03-28T07:19:07.675Z,17.70
2019-03-28T07:21:37.464Z,17.69
2019-03-28T07:24:07.240Z,17.68
2019-03-28T07:26:37.234Z,17.45
2019-03-28T07:29:07.711Z,16.77
2019-03-28T07:31:37.511Z,16.00
2019-03-28T07:34:07.282Z,15.74
2019-03-28T07:36:37.153Z,15.19
2019-03-28T07:39:09.588Z,14.99
2019-03-28T07:41:40.408Z,14.74
2019-03-28T07:44:10.200Z,14.55
2019-03-28T07:46:40.201Z,14.25
2019-03-28T07:49:09.969Z,13.94
2019-03-28T07:51:39.777Z,13.78
2019-03-28T07:54:09.548Z,13.56
2019-03-28T07:56:39.383Z,13.61
2019-03-28T07:59:09.185Z,13.83
2019-03-28T08:01:38.975Z,13.80
2019-03-28T08:04:08.764Z,13.17
2019-03-28T08:06:49.235Z,13.07
2019-03-28T08:09:11.068Z,13.58
2019-03-28T08:11:40.951Z,14.08
2019-03-28T08:14:10.856Z,14.20
2019-03-28T08:16:40.843Z,13.88
2019-03-28T08:19:11.479Z,14.24
2019-03-28T08:21:41.389Z,14.32
2019-03-28T08:24:11.403Z,15.05
2019-03-28T08:26:41.283Z,15.34
2019-03-28T08:29:11.094Z,16.24
2019-03-28T08:31:43.708Z,16.90
2019-03-28T08:34:13.720Z,17.04
2019-03-28T08:36:45.190Z,17.04
2019-03-28T08:39:15.885Z,17.88
2019-03-28T08:41:48.550Z,18.49
2019-03-28T08:44:17.264Z,18.74
2019-03-28T08:46:47.092Z,19.81
2019-03-28T08:49:16.925Z,19.75
2019-03-28T08:51:46.787Z,19.59
2019-03-28T08:54:16.590Z,19.74
2019-03-28T08:56:46.644Z,19.61
2019-03-28T08:59:16.551Z,19.28
2019-03-28T09:01:46.455Z,19.02
2019-03-28T09:04:16.379Z,19.21
2019-03-28T09:06:46.227Z,19.36
2019-03-28T09:09:16.486Z,19.81
2019-03-28T09:11:46.274Z,20.16
2019-03-28T09:14:16.186Z,19.91
2019-03-28T09:16:46.059Z,19.49
2019-03-28T09:19:16.039Z,18.90
2019-03-28T09:21:45.876Z,18.50
2019-03-28T09:24:15.677Z,19.52
2019-03-28T09:26:45.453Z,20.70
2019-03-28T09:29:15.237Z,21.77
2019-03-28T09:31:45.128Z,23.21
2019-03-28T09:34:14.940Z,22.40
2019-03-28T09:36:44.720Z,22.21
2019-03-28T09:39:14.533Z,24.26
2019-03-28T09:41:44.410Z,24.11
2019-03-28T09:44:14.395Z,23.75
2019-03-28T09:46:44.207Z,21.92
2019-03-28T09:49:14.219Z,20.82
2019-03-28T09:51:44.097Z,20.05
2019-03-28T09:54:13.904Z,19.60
2019-03-28T09:56:43.699Z,20.20
2019-03-28T09:59:13.510Z,20.31
2019-03-28T10:01:43.278Z,20.35
2019-03-28T10:04:13.054Z,20.07
2019-03-28T10:06:42.855Z,20.71
2019-03-28T10:09:12.668Z,21.33
2019-03-28T10:11:42.441Z,21.35
2019-03-28T10:14:12.228Z,21.65
2019-03-28T10:16:42.003Z,22.25
2019-03-28T10:19:11.919Z,22.40
2019-03-28T10:21:42.356Z,22.70
2019-03-28T10:24:12.142Z,22.41
2019-03-28T10:26:41.911Z,21.74
2019-03-28T10:29:12.026Z,20.78
2019-03-28T10:31:41.789Z,20.16
2019-03-28T10:34:11.607Z,19.59
2019-03-28T10:36:41.444Z,19.56
2019-03-28T10:39:11.551Z,20.17
2019-03-28T10:41:41.371Z,20.91
2019-03-28T10:44:11.191Z,21.12
2019-03-28T10:46:41.025Z,21.42
2019-03-28T10:49:10.851Z,21.90
2019-03-28T10:51:40.883Z,22.10
2019-03-28T10:54:19.928Z,22.11
2019-03-28T10:56:51.682Z,21.33
2019-03-28T10:59:23.345Z,21.17
2019-03-28T11:01:50.234Z,20.95
2019-03-28T11:04:17.190Z,20.62
2019-03-28T11:06:47.111Z,20.15
2019-03-28T11:09:16.915Z,20.03
2019-03-28T11:11:46.752Z,19.95
2019-03-28T11:14:16.557Z,19.58
2019-03-28T11:16:48.208Z,18.85
2019-03-28T11:19:17.919Z,18.41
2019-03-28T11:21:47.750Z,17.91
2019-03-28T11:24:17.559Z,17.88
2019-03-28T11:26:47.400Z,17.82
2019-03-28T11:29:17.202Z,18.16
2019-03-28T11:31:51.978Z,18.74
2019-03-28T11:34:18.567Z,19.23
2019-03-28T11:36:48.393Z,19.07
2019-03-28T11:39:18.195Z,18.03
2019-03-28T11:41:48.046Z,17.98
2019-03-28T11:44:17.859Z,17.94
2019-03-28T11:46:47.769Z,17.90
2019-03-28T11:49:17.618Z,17.99
2019-03-28T11:51:47.485Z,18.14
2019-03-28T11:54:17.356Z,16.83
2019-03-28T11:56:47.382Z,16.83
2019-03-28T11:59:17.284Z,16.16
2019-03-28T12:01:59.442Z,16.33
2019-03-28T12:04:18.659Z,16.22
2019-03-28T12:06:49.017Z,15.69
2019-03-28T12:09:19.319Z,15.93
2019-03-28T12:11:49.155Z,16.47
2019-03-28T12:14:18.972Z,17.20
2019-03-28T12:16:48.815Z,17.46
2019-03-28T12:19:18.634Z,17.57
2019-03-28T12:21:48.438Z,17.96
2019-03-28T12:24:18.330Z,17.96
2019-03-28T12:26:48.274Z,18.01
2019-03-28T12:29:18.091Z,17.95
2019-03-28T12:31:47.933Z,17.84
2019-03-28T12:34:17.746Z,17.54
2019-03-28T12:36:47.608Z,17.04
2019-03-28T12:39:17.639Z,16.88
2019-03-28T12:41:47.476Z,16.54
2019-03-28T12:44:17.351Z,16.31
2019-03-28T12:46:47.187Z,16.07
2019-03-28T12:49:17.002Z,15.93
2019-03-28T12:51:46.873Z,15.62
2019-03-28T12:54:16.698Z,15.32
2019-03-28T12:56:46.571Z,15.28
2019-03-28T12:59:16.435Z,15.05
2019-03-28T13:01:46.385Z,15.00
2019-03-28T13:04:16.327Z,14.84
2019-03-28T13:06:46.250Z,14.97
2019-03-28T13:09:16.135Z,14.97
2019-03-28T13:11:46.390Z,14.99
2019-03-28T13:14:16.461Z,14.90
2019-03-28T13:16:46.575Z,14.89
2019-03-28T13:19:16.377Z,14.81
2019-03-28T13:21:46.352Z,14.72
2019-03-28T13:24:16.257Z,14.73
2019-03-28T13:26:46.671Z,14.84
2019-03-28T13:29:16.733Z,14.98
2019-03-28T13:31:46.570Z,15.00
2019-03-28T13:34:16.396Z,15.02
2019-03-28T13:36:46.231Z,15.10
2019-03-28T13:39:16.361Z,15.00
2019-03-28T13:41:46.671Z,14.86
2019-03-28T13:44:16.547Z,14.95
2019-03-28T13:46:46.615Z,15.09
2019-03-28T13:49:16.659Z,15.19
2019-03-28T13:51:46.686Z,15.48
2019-03-28T13:54:16.639Z,15.69
2019-03-28T13:56:46.548Z,15.87
2019-03-28T13:59:16.430Z,16.07
2019-03-28T14:01:46.279Z,16.05
2019-03-28T14:04:16.296Z,15.86
2019-03-28T14:06:46.113Z,15.73
2019-03-28T14:09:15.952Z,15.61
2019-03-28T14:11:45.793Z,15.49
2019-03-28T14:14:15.635Z,15.50
2019-03-28T14:16:45.525Z,15.45
2019-03-28T14:19:15.367Z,15.41
2019-03-28T14:21:45.341Z,15.35
2019-03-28T14:24:15.178Z,15.31
2019-03-28T14:26:45.083Z,15.27
2019-03-28T14:29:15.094Z,15.14
2019-03-28T14:31:45.011Z,15.08
2019-03-28T14:34:14.880Z,15.06
2019-03-28T14:36:44.803Z,15.01
2019-03-28T14:39:14.855Z,15.03
2019-03-28T14:41:46.387Z,15.07
2019-03-28T14:44:16.397Z,15.02
2019-03-28T14:46:46.335Z,15.02
2019-03-28T14:49:16.176Z,14.96
2019-03-28T14:51:46.108Z,15.04
2019-03-28T14:54:16.038Z,15.06
2019-03-28T14:56:46.478Z,15.11
2019-03-28T14:59:31.406Z,15.18
2019-03-28T15:01:49.962Z,15.31
2019-03-28T15:04:20.009Z,15.54
2019-03-28T15:06:49.859Z,15.75
2019-03-28T15:09:19.814Z,15.88
2019-03-28T15:11:49.635Z,16.07
2019-03-28T15:14:19.693Z,16.15
2019-03-28T15:16:49.502Z,16.20
2019-03-28T15:19:19.465Z,16.29
2019-03-28T15:21:49.364Z,16.33
2019-03-28T15:24:19.281Z,16.19
2019-03-28T15:26:49.829Z,16.11
2019-03-28T15:29:19.894Z,15.97
2019-03-28T15:31:49.733Z,15.76
2019-03-28T15:34:19.547Z,15.57
2019-03-28T15:36:49.384Z,15.37
2019-03-28T15:39:19.196Z,15.10
2019-03-28T15:41:49.139Z,15.07
2019-03-28T15:44:19.043Z,15.01
2019-03-28T15:46:48.985Z,15.01
2019-03-28T15:49:18.801Z,14.86
2019-03-28T15:51:48.723Z,14.88
2019-03-28T15:54:18.632Z,14.86
2019-03-28T15:56:48.483Z,14.62
2019-03-28T15:59:18.287Z,14.54
2019-03-28T16:01:48.128Z,14.48
2019-03-28T16:04:17.930Z,14.33
2019-03-28T16:06:47.761Z,14.30
2019-03-28T16:09:18.572Z,14.33
2019-03-28T16:12:01.696Z,14.24
2019-03-28T16:14:20.226Z,14.01
2019-03-28T16:16:50.168Z,13.82
2019-03-28T16:19:20.021Z,13.72
2019-03-28T16:21:49.866Z,13.55
2019-03-28T16:24:19.749Z,13.32
2019-03-28T16:26:49.603Z,13.30
2019-03-28T16:29:19.418Z,13.30
2019-03-28T16:31:49.222Z,13.26
2019-03-28T16:34:19.097Z,13.29
2019-03-28T16:36:49.138Z,13.23
2019-03-28T16:39:18.962Z,13.13
2019-03-28T16:41:49.689Z,13.15
2019-03-28T16:44:19.593Z,13.08
2019-03-28T16:46:49.582Z,13.03
2019-03-28T16:49:19.474Z,12.99
2019-03-28T16:51:49.421Z,12.97
2019-03-28T16:54:19.239Z,12.86
2019-03-28T16:56:49.101Z,12.74
2019-03-28T16:59:18.920Z,12.72
2019-03-28T17:01:48.902Z,12.74
2019-03-28T17:04:20.908Z,12.69
2019-03-28T17:06:50.881Z,12.54
2019-03-28T17:09:20.685Z,12.46
2019-03-28T17:11:50.523Z,12.34
2019-03-28T17:14:20.330Z,12.31
2019-03-28T17:16:50.163Z,12.26
2019-03-28T17:19:20.002Z,12.20
2019-03-28T17:21:49.930Z,12.20
2019-03-28T17:24:19.733Z,12.20
2019-03-28T17:26:49.600Z,12.19
2019-03-28T17:29:19.383Z,12.09
2019-03-28T17:31:49.210Z,12.17
2019-03-28T17:34:19.028Z,12.18
2019-03-28T17:36:48.859Z,12.13
2019-03-28T17:39:18.776Z,12.14
2019-03-28T17:41:48.698Z,12.17
2019-03-28T17:44:18.514Z,12.19
2019-03-28T17:46:48.353Z,12.15
2019-03-28T17:49:18.163Z,12.09
2019-03-28T17:51:47.977Z,12.04
2019-03-28T17:54:17.805Z,12.03
2019-03-28T17:56:47.960Z,12.00
2019-03-28T17:59:17.771Z,11.95
2019-03-28T18:01:47.839Z,11.92
2019-03-28T18:04:23.168Z,11.91
2019-03-28T18:06:49.382Z,11.93
2019-03-28T18:09:19.291Z,11.95
2019-03-28T18:11:49.099Z,12.00
2019-03-28T18:14:18.947Z,11.96
2019-03-28T18:16:48.766Z,12.01
2019-03-28T18:19:18.642Z,12.02
2019-03-28T18:22:02.438Z,12.01
2019-03-28T18:24:20.002Z,11.98
2019-03-28T18:26:49.817Z,12.01
2019-03-28T18:29:19.659Z,12.02
2019-03-28T18:31:52.303Z,12.02
2019-03-28T18:34:21.047Z,11.98
2019-03-28T18:36:51.039Z,11.99
2019-03-28T18:39:20.907Z,11.99
2019-03-28T18:41:50.759Z,11.96
2019-03-28T18:44:20.616Z,11.94
2019-03-28T18:46:50.442Z,11.90
2019-03-28T18:49:20.271Z,11.90
2019-03-28T18:51:50.082Z,11.86
2019-03-28T18:54:20.441Z,11.81
2019-03-28T18:56:50.349Z,11.80
2019-03-28T18:59:20.189Z,11.75
2019-03-28T19:01:50.011Z,11.74
2019-03-28T19:04:20.089Z,11.73
2019-03-28T19:06:49.954Z,11.71
2019-03-28T19:09:19.869Z,11.75
2019-03-28T19:11:49.667Z,11.69
2019-03-28T19:14:19.508Z,11.70
2019-03-28T19:16:52.085Z,11.73
2019-03-28T19:19:21.065Z,11.70
2019-03-28T19:21:50.962Z,11.68
2019-03-28T19:24:20.882Z,11.59
2019-03-28T19:26:50.804Z,11.62
2019-03-28T19:29:20.623Z,11.56
2019-03-28T19:31:50.419Z,11.54
2019-03-28T19:34:20.270Z,11.53
2019-03-28T19:36:50.774Z,11.48
2019-03-28T19:39:29.375Z,11.48
2019-03-28T19:41:59.281Z,11.45
2019-03-28T19:44:30.019Z,11.46
2019-03-28T19:46:59.982Z,11.38
2019-03-28T19:49:29.935Z,11.40
2019-03-28T19:52:00.123Z,11.42
2019-03-28T19:54:30.078Z,11.33
2019-03-28T19:56:59.922Z,11.34
2019-03-28T19:59:29.754Z,11.27
2019-03-28T20:01:59.576Z,11.18
2019-03-28T20:04:29.421Z,11.17
2019-03-28T20:06:59.226Z,11.10
2019-03-28T20:09:29.164Z,11.12
2019-03-28T20:12:03.134Z,11.11
2019-03-28T20:14:30.590Z,11.11
2019-03-28T20:17:00.478Z,11.10
2019-03-28T20:19:30.336Z,11.08
2019-03-28T20:22:00.253Z,11.12
2019-03-28T20:24:30.062Z,11.08
2019-03-28T20:26:59.853Z,11.08
2019-03-28T20:29:29.713Z,11.10
2019-03-28T20:31:59.516Z,11.07
2019-03-28T20:34:29.980Z,11.09
2019-03-28T20:36:59.955Z,11.08
2019-03-28T20:39:29.802Z,11.04
2019-03-28T20:41:59.614Z,11.03
2019-03-28T20:44:29.458Z,11.00
2019-03-28T20:46:59.278Z,10.95
2019-03-28T20:49:29.077Z,10.97
2019-03-28T20:51:58.923Z,10.91
2019-03-28T20:54:28.756Z,10.94
2019-03-28T20:56:58.653Z,10.97
2019-03-28T20:59:28.467Z,10.91
2019-03-28T21:01:58.309Z,10.88
2019-03-28T21:04:31.399Z,10.79
2019-03-28T21:07:00.245Z,10.76
2019-03-28T21:09:30.069Z,10.65
2019-03-28T21:12:00.131Z,10.60
2019-03-28T21:14:30.031Z,10.47
2019-03-28T21:16:59.877Z,10.44
2019-03-28T21:19:29.688Z,10.42
2019-03-28T21:21:59.535Z,10.36
2019-03-28T21:24:29.303Z,10.36
2019-03-28T21:26:59.111Z,10.32
2019-03-28T21:29:28.871Z,10.26
2019-03-28T21:31:58.711Z,10.25
2019-03-28T21:34:28.491Z,10.28
2019-03-28T21:36:58.870Z,10.26
2019-03-28T21:39:28.867Z,10.27
2019-03-28T21:41:58.991Z,10.26
2019-03-28T21:44:28.820Z,10.27
2019-03-28T21:46:58.886Z,10.29
2019-03-28T21:49:28.863Z,10.25
2019-03-28T21:51:58.665Z,10.15
2019-03-28T21:54:28.556Z,10.15
2019-03-28T21:56:58.575Z,10.05
2019-03-28T21:59:28.456Z,9.98
2019-03-28T22:01:58.887Z,9.92
2019-03-28T22:04:28.918Z,9.74
2019-03-28T22:06:58.701Z,9.71
2019-03-28T22:09:28.483Z,9.67
2019-03-28T22:12:00.710Z,9.59
2019-03-28T22:14:29.791Z,9.50
2019-03-28T22:16:59.592Z,9.44
2019-03-28T22:19:29.368Z,9.37
2019-03-28T22:21:59.195Z,9.40
2019-03-28T22:24:28.962Z,9.35
2019-03-28T22:26:58.973Z,9.36
2019-03-28T22:29:28.767Z,9.39
2019-03-28T22:31:58.762Z,9.35
2019-03-28T22:34:28.545Z,9.37
2019-03-28T22:36:59.980Z,9.34
2019-03-28T22:39:29.849Z,9.26
2019-03-28T22:41:59.644Z,9.24
2019-03-28T22:44:29.424Z,9.19
2019-03-28T22:46:59.253Z,9.23
2019-03-28T22:49:29.028Z,9.21
2019-03-28T22:51:58.940Z,9.22
2019-03-28T22:54:28.812Z,9.18
2019-03-28T22:56:58.630Z,9.16
2019-03-28T22:59:28.400Z,9.15
2019-03-28T23:01:58.317Z,9.10
2019-03-28T23:04:28.272Z,9.22
2019-03-28T23:07:10.429Z,9.23
2019-03-28T23:09:31.040Z,9.20
2019-03-28T23:12:01.121Z,9.24
2019-03-28T23:14:30.991Z,9.30
2019-03-28T23:17:00.897Z,9.33
2019-03-28T23:19:31.956Z,9.34
2019-03-28T23:22:01.865Z,9.38
2019-03-28T23:24:31.648Z,9.41
2019-03-28T23:27:01.560Z,9.42
2019-03-28T23:29:31.332Z,9.48
2019-03-28T23:32:01.138Z,9.48
2019-03-28T23:34:30.901Z,9.50
2019-03-28T23:37:00.774Z,9.49
2019-03-28T23:39:30.553Z,9.43
2019-03-28T23:42:00.477Z,9.54
2019-03-28T23:44:30.415Z,9.56
2019-03-28T23:47:00.193Z,9.58
2019-03-28T23:49:29.971Z,9.60
2019-03-28T23:51:59.748Z,9.62
2019-03-28T23:54:29.572Z,9.66
2019-03-28T23:56:59.472Z,9.58
2019-03-28T23:59:29.280Z,9.59
